sensor_id;sensor_type;location;lat;lon;timestamp;pressure;altitude;pressure_sealevel;temperature;humidity
41686;BME280;27370;42.764;23.432;2022-07-03T00:01:25;95979.59;;;18.97;100.00
41686;BME280;27370;42.764;23.432;2022-07-03T00:03:51;95970.41;;;18.82;100.00
41686;BME280;27370;42.764;23.432;2022-07-03T00:06:17;95967.47;;;18.77;100.00
41686;BME280;27370;42.764;23.432;2022-07-03T00:08:42;95965.34;;;18.72;100.00
41686;BME280;27370;42.764;23.432;2022-07-03T00:11:08;95967.13;;;18.65;100.00
41686;BME280;27370;42.764;23.432;2022-07-03T00:13:34;95965.25;;;18.84;100.00
41686;BME280;27370;42.764;23.432;2022-07-03T00:16:00;95967.56;;;18.95;100.00
41686;BME280;27370;42.764;23.432;2022-07-03T00:18:25;95972.91;;;18.98;100.00
41686;BME280;27370;42.764;23.432;2022-07-03T00:21:02;95959.06;;;19.02;100.00
41686;BME280;27370;42.764;23.432;2022-07-03T00:23:29;95961.94;;;18.98;100.00
41686;BME280;27370;42.764;23.432;2022-07-03T00:25:55;95968.00;;;18.93;100.00
41686;BME280;27370;42.764;23.432;2022-07-03T00:28:23;95964.09;;;19.04;100.00
41686;BME280;27370;42.764;23.432;2022-07-03T00:30:50;95958.09;;;18.96;100.00
41686;BME280;27370;42.764;23.432;2022-07-03T00:33:18;95961.16;;;18.98;100.00
41686;BME280;27370;42.764;23.432;2022-07-03T00:35:45;95959.19;;;18.98;100.00
41686;BME280;27370;42.764;23.432;2022-07-03T00:38:12;95957.34;;;18.95;100.00
41686;BME280;27370;42.764;23.432;2022-07-03T00:40:37;95950.47;;;18.91;100.00
41686;BME280;27370;42.764;23.432;2022-07-03T00:43:04;95952.31;;;18.94;100.00
41686;BME280;27370;42.764;23.432;2022-07-03T00:45:33;95952.38;;;18.72;100.00
41686;BME280;27370;42.764;23.432;2022-07-03T00:47:59;95955.97;;;18.60;100.00
41686;BME280;27370;42.764;23.432;2022-07-03T00:50:34;95956.78;;;18.70;100.00
41686;BME280;27370;42.764;23.432;2022-07-03T00:53:02;95949.03;;;18.77;100.00
41686;BME280;27370;42.764;23.432;2022-07-03T00:55:28;95952.25;;;18.76;100.00
41686;BME280;27370;42.764;23.432;2022-07-03T00:57:55;95949.59;;;18.63;100.00
41686;BME280;27370;42.764;23.432;2022-07-03T01:00:22;95952.84;;;18.71;100.00
41686;BME280;27370;42.764;23.432;2022-07-03T01:02:56;95938.09;;;18.55;100.00
41686;BME280;27370;42.764;23.432;2022-07-03T01:05:35;95938.06;;;18.46;100.00
41686;BME280;27370;42.764;23.432;2022-07-03T01:08:30;95936.97;;;18.34;100.00
41686;BME280;27370;42.764;23.432;2022-07-03T01:13:38;95936.56;;;18.23;100.00
41686;BME280;27370;42.764;23.432;2022-07-03T01:16:31;95938.16;;;18.33;100.00
41686;BME280;27370;42.764;23.432;2022-07-03T01:21:36;95932.25;;;18.13;100.00
41686;BME280;27370;42.764;23.432;2022-07-03T01:26:51;95928.53;;;18.07;100.00
41686;BME280;27370;42.764;23.432;2022-07-03T01:29:34;95931.69;;;18.18;100.00
41686;BME280;27370;42.764;23.432;2022-07-03T01:32:01;95928.69;;;18.03;100.00
41686;BME280;27370;42.764;23.432;2022-07-03T01:34:32;95928.31;;;18.14;100.00
41686;BME280;27370;42.764;23.432;2022-07-03T01:37:00;95925.25;;;18.12;100.00
41686;BME280;27370;42.764;23.432;2022-07-03T01:39:28;95923.44;;;18.18;100.00
41686;BME280;27370;42.764;23.432;2022-07-03T01:41:59;95923.34;;;18.31;100.00
41686;BME280;27370;42.764;23.432;2022-07-03T01:44:27;95921.28;;;18.35;100.00
41686;BME280;27370;42.764;23.432;2022-07-03T01:46:57;95922.91;;;18.32;100.00
41686;BME280;27370;42.764;23.432;2022-07-03T01:49:26;95924.50;;;18.43;100.00
41686;BME280;27370;42.764;23.432;2022-07-03T01:51:52;95921.75;;;18.43;100.00
41686;BME280;27370;42.764;23.432;2022-07-03T01:54:19;95918.38;;;18.39;100.00
41686;BME280;27370;42.764;23.432;2022-07-03T01:56:46;95921.38;;;18.31;100.00
41686;BME280;27370;42.764;23.432;2022-07-03T01:59:11;95918.00;;;18.27;100.00
41686;BME280;27370;42.764;23.432;2022-07-03T02:01:45;95923.81;;;18.29;100.00
41686;BME280;27370;42.764;23.432;2022-07-03T02:04:33;95930.81;;;18.30;100.00
41686;BME280;27370;42.764;23.432;2022-07-03T02:07:05;95931.06;;;18.45;100.00
41686;BME280;27370;42.764;23.432;2022-07-03T02:10:09;95933.06;;;18.54;100.00
41686;BME280;27370;42.764;23.432;2022-07-03T02:12:59;95938.38;;;17.95;100.00
41686;BME280;27370;42.764;23.432;2022-07-03T02:15:34;95939.44;;;17.76;100.00
41686;BME280;27370;42.764;23.432;2022-07-03T02:18:25;95938.75;;;17.85;100.00
41686;BME280;27370;42.764;23.432;2022-07-03T02:21:14;95935.38;;;17.81;100.00
41686;BME280;27370;42.764;23.432;2022-07-03T02:24:10;95933.97;;;17.63;100.00
41686;BME280;27370;42.764;23.432;2022-07-03T02:26:42;95935.84;;;17.66;100.00
41686;BME280;27370;42.764;23.432;2022-07-03T02:29:15;95932.00;;;17.77;100.00
41686;BME280;27370;42.764;23.432;2022-07-03T02:31:43;95930.34;;;17.79;100.00
41686;BME280;27370;42.764;23.432;2022-07-03T02:34:16;95933.97;;;17.63;100.00
41686;BME280;27370;42.764;23.432;2022-07-03T02:36:46;95939.47;;;17.63;100.00
41686;BME280;27370;42.764;23.432;2022-07-03T02:45:54;95941.81;;;17.87;100.00
41686;BME280;27370;42.764;23.432;2022-07-03T02:48:36;95946.09;;;17.53;100.00
41686;BME280;27370;42.764;23.432;2022-07-03T02:51:10;95955.34;;;17.34;100.00
41686;BME280;27370;42.764;23.432;2022-07-03T02:53:44;95945.28;;;17.31;100.00
41686;BME280;27370;42.764;23.432;2022-07-03T02:56:17;95951.06;;;17.33;100.00
41686;BME280;27370;42.764;23.432;2022-07-03T02:58:53;95961.81;;;17.27;100.00
41686;BME280;27370;42.764;23.432;2022-07-03T03:02:32;95955.47;;;17.18;100.00
41686;BME280;27370;42.764;23.432;2022-07-03T03:04:32;95957.44;;;17.30;100.00
41686;BME280;27370;42.764;23.432;2022-07-03T03:09:41;95968.13;;;17.37;100.00
41686;BME280;27370;42.764;23.432;2022-07-03T03:12:08;95971.72;;;16.99;100.00
41686;BME280;27370;42.764;23.432;2022-07-03T03:14:45;95963.81;;;17.01;100.00
41686;BME280;27370;42.764;23.432;2022-07-03T03:17:17;95965.88;;;16.97;100.00
41686;BME280;27370;42.764;23.432;2022-07-03T03:19:52;95958.34;;;17.01;100.00
41686;BME280;27370;42.764;23.432;2022-07-03T03:25:13;95967.84;;;16.97;100.00
41686;BME280;27370;42.764;23.432;2022-07-03T03:27:38;95962.25;;;17.13;100.00
41686;BME280;27370;42.764;23.432;2022-07-03T03:30:04;95970.25;;;17.20;100.00
41686;BME280;27370;42.764;23.432;2022-07-03T03:32:34;95972.78;;;17.02;100.00
41686;BME280;27370;42.764;23.432;2022-07-03T03:35:01;95975.66;;;16.86;100.00
41686;BME280;27370;42.764;23.432;2022-07-03T03:37:26;95979.53;;;16.59;100.00
41686;BME280;27370;42.764;23.432;2022-07-03T03:39:52;95975.97;;;17.00;100.00
41686;BME280;27370;42.764;23.432;2022-07-03T03:42:18;95971.03;;;17.08;100.00
41686;BME280;27370;42.764;23.432;2022-07-03T03:44:43;95972.34;;;16.91;100.00
41686;BME280;27370;42.764;23.432;2022-07-03T03:47:09;95967.00;;;16.87;100.00
41686;BME280;27370;42.764;23.432;2022-07-03T03:49:34;95962.63;;;16.90;100.00
41686;BME280;27370;42.764;23.432;2022-07-03T03:52:01;95967.31;;;16.89;100.00
41686;BME280;27370;42.764;23.432;2022-07-03T03:54:26;95967.66;;;16.91;100.00
41686;BME280;27370;42.764;23.432;2022-07-03T03:56:52;95984.28;;;17.09;100.00
41686;BME280;27370;42.764;23.432;2022-07-03T03:59:17;95973.41;;;17.31;100.00
41686;BME280;27370;42.764;23.432;2022-07-03T04:01:43;95979.94;;;17.47;100.00
41686;BME280;27370;42.764;23.432;2022-07-03T04:04:11;95976.84;;;17.70;100.00
41686;BME280;27370;42.764;23.432;2022-07-03T04:06:37;95969.84;;;17.69;100.00
41686;BME280;27370;42.764;23.432;2022-07-03T04:09:03;95967.03;;;17.82;100.00
41686;BME280;27370;42.764;23.432;2022-07-03T04:11:28;95966.34;;;17.90;100.00
41686;BME280;27370;42.764;23.432;2022-07-03T04:13:54;95969.41;;;17.92;100.00
41686;BME280;27370;42.764;23.432;2022-07-03T04:16:19;95965.91;;;18.35;100.00
41686;BME280;27370;42.764;23.432;2022-07-03T04:18:46;95968.41;;;18.52;100.00
41686;BME280;27370;42.764;23.432;2022-07-03T04:21:11;95972.94;;;18.46;100.00
41686;BME280;27370;42.764;23.432;2022-07-03T04:23:37;95964.72;;;18.67;100.00
41686;BME280;27370;42.764;23.432;2022-07-03T04:26:05;95961.97;;;18.67;100.00
41686;BME280;27370;42.764;23.432;2022-07-03T04:28:32;95969.22;;;18.83;100.00
41686;BME280;27370;42.764;23.432;2022-07-03T04:30:58;95964.97;;;19.01;100.00
41686;BME280;27370;42.764;23.432;2022-07-03T04:33:23;95971.75;;;19.18;100.00
41686;BME280;27370;42.764;23.432;2022-07-03T04:35:49;95974.22;;;19.25;100.00
41686;BME280;27370;42.764;23.432;2022-07-03T04:38:14;95970.88;;;19.39;100.00
41686;BME280;27370;42.764;23.432;2022-07-03T04:40:40;95970.91;;;19.48;100.00
41686;BME280;27370;42.764;23.432;2022-07-03T04:43:06;95970.47;;;19.68;100.00
41686;BME280;27370;42.764;23.432;2022-07-03T04:45:31;95978.28;;;19.97;100.00
41686;BME280;27370;42.764;23.432;2022-07-03T04:47:57;95977.97;;;20.13;100.00
41686;BME280;27370;42.764;23.432;2022-07-03T04:50:22;95977.22;;;20.40;100.00
41686;BME280;27370;42.764;23.432;2022-07-03T04:52:48;95979.50;;;20.42;100.00
41686;BME280;27370;42.764;23.432;2022-07-03T04:55:14;95972.44;;;20.50;100.00
41686;BME280;27370;42.764;23.432;2022-07-03T04:57:39;95981.63;;;20.47;100.00
41686;BME280;27370;42.764;23.432;2022-07-03T05:00:05;95973.19;;;20.60;100.00
41686;BME280;27370;42.764;23.432;2022-07-03T05:02:32;95964.13;;;20.68;100.00
41686;BME280;27370;42.764;23.432;2022-07-03T05:04:57;95969.88;;;20.89;100.00
41686;BME280;27370;42.764;23.432;2022-07-03T05:07:23;95963.31;;;20.86;100.00
41686;BME280;27370;42.764;23.432;2022-07-03T05:09:48;95964.47;;;20.61;100.00
41686;BME280;27370;42.764;23.432;2022-07-03T05:12:14;95968.22;;;21.15;100.00
41686;BME280;27370;42.764;23.432;2022-07-03T05:14:39;95955.13;;;21.01;100.00
41686;BME280;27370;42.764;23.432;2022-07-03T05:17:05;95957.19;;;21.15;100.00
41686;BME280;27370;42.764;23.432;2022-07-03T05:19:30;95965.88;;;21.56;100.00
41686;BME280;27370;42.764;23.432;2022-07-03T05:21:56;95966.97;;;21.49;100.00
41686;BME280;27370;42.764;23.432;2022-07-03T05:24:21;95966.44;;;21.60;100.00
41686;BME280;27370;42.764;23.432;2022-07-03T05:26:49;95968.25;;;21.63;100.00
41686;BME280;27370;42.764;23.432;2022-07-03T05:29:14;95969.06;;;21.78;100.00
41686;BME280;27370;42.764;23.432;2022-07-03T05:31:40;95972.13;;;21.80;100.00
41686;BME280;27370;42.764;23.432;2022-07-03T05:34:05;95971.31;;;21.65;100.00
41686;BME280;27370;42.764;23.432;2022-07-03T05:36:31;95967.28;;;21.75;100.00
41686;BME280;27370;42.764;23.432;2022-07-03T05:38:56;95971.84;;;21.93;100.00
41686;BME280;27370;42.764;23.432;2022-07-03T05:41:40;95973.50;;;21.99;100.00
41686;BME280;27370;42.764;23.432;2022-07-03T05:44:05;95967.03;;;22.41;100.00
41686;BME280;27370;42.764;23.432;2022-07-03T05:46:31;95975.75;;;22.40;100.00
41686;BME280;27370;42.764;23.432;2022-07-03T05:48:56;95976.25;;;22.53;100.00
41686;BME280;27370;42.764;23.432;2022-07-03T05:51:22;95976.81;;;22.42;100.00
41686;BME280;27370;42.764;23.432;2022-07-03T05:53:47;95971.69;;;22.50;100.00
41686;BME280;27370;42.764;23.432;2022-07-03T05:56:13;95969.59;;;22.45;100.00
41686;BME280;27370;42.764;23.432;2022-07-03T05:58:38;95968.25;;;22.25;100.00
41686;BME280;27370;42.764;23.432;2022-07-03T06:01:06;95978.81;;;22.27;100.00
41686;BME280;27370;42.764;23.432;2022-07-03T06:03:32;95973.00;;;22.40;100.00
41686;BME280;27370;42.764;23.432;2022-07-03T06:05:59;95970.63;;;22.47;100.00
41686;BME280;27370;42.764;23.432;2022-07-03T06:08:24;95975.75;;;22.40;100.00
41686;BME280;27370;42.764;23.432;2022-07-03T06:10:50;95980.34;;;22.43;100.00
41686;BME280;27370;42.764;23.432;2022-07-03T06:13:15;95982.13;;;22.75;100.00
41686;BME280;27370;42.764;23.432;2022-07-03T06:15:41;95979.63;;;23.07;100.00
41686;BME280;27370;42.764;23.432;2022-07-03T06:18:06;95982.88;;;23.05;100.00
41686;BME280;27370;42.764;23.432;2022-07-03T06:20:31;95984.56;;;23.17;100.00
41686;BME280;27370;42.764;23.432;2022-07-03T06:22:57;95976.88;;;23.42;100.00
41686;BME280;27370;42.764;23.432;2022-07-03T06:25:22;95981.41;;;23.25;100.00
41686;BME280;27370;42.764;23.432;2022-07-03T06:27:48;95976.78;;;23.16;100.00
41686;BME280;27370;42.764;23.432;2022-07-03T06:30:13;95977.88;;;23.24;100.00
41686;BME280;27370;42.764;23.432;2022-07-03T06:32:39;95979.47;;;23.31;100.00
41686;BME280;27370;42.764;23.432;2022-07-03T06:35:05;95979.88;;;23.23;100.00
41686;BME280;27370;42.764;23.432;2022-07-03T06:37:31;95975.91;;;23.45;100.00
41686;BME280;27370;42.764;23.432;2022-07-03T06:39:56;95982.09;;;23.75;100.00
41686;BME280;27370;42.764;23.432;2022-07-03T06:42:22;95980.22;;;24.07;100.00
41686;BME280;27370;42.764;23.432;2022-07-03T06:44:47;95976.69;;;24.53;100.00
41686;BME280;27370;42.764;23.432;2022-07-03T06:47:13;95975.28;;;24.94;100.00
41686;BME280;27370;42.764;23.432;2022-07-03T06:49:38;95979.41;;;24.73;100.00
41686;BME280;27370;42.764;23.432;2022-07-03T06:52:04;95973.50;;;24.91;100.00
41686;BME280;27370;42.764;23.432;2022-07-03T06:54:29;95965.16;;;25.17;100.00
41686;BME280;27370;42.764;23.432;2022-07-03T06:56:55;95976.88;;;25.38;100.00
41686;BME280;27370;42.764;23.432;2022-07-03T06:59:20;95977.31;;;25.31;100.00
41686;BME280;27370;42.764;23.432;2022-07-03T07:01:46;95970.13;;;25.56;100.00
41686;BME280;27370;42.764;23.432;2022-07-03T07:04:11;95969.72;;;25.69;100.00
41686;BME280;27370;42.764;23.432;2022-07-03T07:06:37;95968.72;;;25.72;100.00
41686;BME280;27370;42.764;23.432;2022-07-03T07:09:03;95956.44;;;25.89;100.00
41686;BME280;27370;42.764;23.432;2022-07-03T07:11:29;95961.25;;;26.00;100.00
41686;BME280;27370;42.764;23.432;2022-07-03T07:13:55;95959.78;;;26.05;100.00
41686;BME280;27370;42.764;23.432;2022-07-03T07:16:20;95956.47;;;26.01;100.00
41686;BME280;27370;42.764;23.432;2022-07-03T07:18:46;95954.69;;;25.98;100.00
41686;BME280;27370;42.764;23.432;2022-07-03T07:21:11;95954.44;;;25.95;100.00
41686;BME280;27370;42.764;23.432;2022-07-03T07:23:37;95962.50;;;25.88;100.00
41686;BME280;27370;42.764;23.432;2022-07-03T07:26:03;95949.06;;;25.70;100.00
41686;BME280;27370;42.764;23.432;2022-07-03T07:28:29;95958.00;;;26.02;100.00
41686;BME280;27370;42.764;23.432;2022-07-03T07:30:56;95957.78;;;26.05;100.00
41686;BME280;27370;42.764;23.432;2022-07-03T07:33:23;95954.31;;;25.62;100.00
41686;BME280;27370;42.764;23.432;2022-07-03T07:35:49;95952.84;;;25.72;100.00
41686;BME280;27370;42.764;23.432;2022-07-03T07:38:15;95954.69;;;25.98;100.00
41686;BME280;27370;42.764;23.432;2022-07-03T07:40:41;95950.66;;;25.87;100.00
41686;BME280;27370;42.764;23.432;2022-07-03T07:43:06;95946.50;;;25.66;100.00
41686;BME280;27370;42.764;23.432;2022-07-03T07:45:33;95946.03;;;25.68;100.00
41686;BME280;27370;42.764;23.432;2022-07-03T07:47:58;95945.31;;;25.78;100.00
41686;BME280;27370;42.764;23.432;2022-07-03T07:50:24;95945.91;;;26.10;100.00
41686;BME280;27370;42.764;23.432;2022-07-03T07:52:49;95934.88;;;26.33;100.00
41686;BME280;27370;42.764;23.432;2022-07-03T07:55:15;95938.16;;;26.48;100.00
41686;BME280;27370;42.764;23.432;2022-07-03T07:57:41;95930.34;;;26.46;100.00
41686;BME280;27370;42.764;23.432;2022-07-03T08:00:08;95930.09;;;26.61;100.00
41686;BME280;27370;42.764;23.432;2022-07-03T08:02:37;95930.84;;;26.90;100.00
41686;BME280;27370;42.764;23.432;2022-07-03T08:05:22;95932.38;;;26.85;100.00
41686;BME280;27370;42.764;23.432;2022-07-03T08:10:42;95931.34;;;27.27;96.85
41686;BME280;27370;42.764;23.432;2022-07-03T08:13:09;95930.84;;;27.23;100.00
41686;BME280;27370;42.764;23.432;2022-07-03T08:15:35;95934.38;;;27.29;99.71
41686;BME280;27370;42.764;23.432;2022-07-03T08:18:02;95930.06;;;27.28;97.77
41686;BME280;27370;42.764;23.432;2022-07-03T08:20:28;95932.84;;;27.28;95.59
41686;BME280;27370;42.764;23.432;2022-07-03T08:22:54;95933.31;;;27.38;97.13
41686;BME280;27370;42.764;23.432;2022-07-03T08:25:20;95925.16;;;27.57;99.43
41686;BME280;27370;42.764;23.432;2022-07-03T08:27:45;95927.47;;;27.64;100.00
41686;BME280;27370;42.764;23.432;2022-07-03T08:30:11;95938.63;;;27.47;93.11
41686;BME280;27370;42.764;23.432;2022-07-03T08:32:39;95940.34;;;27.56;90.35
41686;BME280;27370;42.764;23.432;2022-07-03T08:35:05;95936.47;;;27.87;90.41
41686;BME280;27370;42.764;23.432;2022-07-03T08:37:30;95937.50;;;27.78;91.76
41686;BME280;27370;42.764;23.432;2022-07-03T08:39:56;95938.41;;;28.03;87.42
41686;BME280;27370;42.764;23.432;2022-07-03T08:42:22;95926.41;;;28.19;84.71
41686;BME280;27370;42.764;23.432;2022-07-03T08:44:50;95926.88;;;28.29;91.07
41686;BME280;27370;42.764;23.432;2022-07-03T08:47:16;95932.38;;;28.40;85.94
41686;BME280;27370;42.764;23.432;2022-07-03T08:49:44;95919.06;;;28.22;79.67
41686;BME280;27370;42.764;23.432;2022-07-03T08:52:10;95919.91;;;28.52;79.78
41686;BME280;27370;42.764;23.432;2022-07-03T08:54:37;95918.88;;;28.55;77.98
41686;BME280;27370;42.764;23.432;2022-07-03T08:57:03;95907.78;;;28.80;67.80
41686;BME280;27370;42.764;23.432;2022-07-03T08:59:34;95914.22;;;28.63;69.63
41686;BME280;27370;42.764;23.432;2022-07-03T09:02:02;95914.78;;;28.92;64.54
41686;BME280;27370;42.764;23.432;2022-07-03T09:04:29;95912.81;;;29.11;62.59
41686;BME280;27370;42.764;23.432;2022-07-03T09:06:55;95914.06;;;28.86;67.09
41686;BME280;27370;42.764;23.432;2022-07-03T09:09:21;95908.91;;;28.95;64.08
41686;BME280;27370;42.764;23.432;2022-07-03T09:11:47;95907.19;;;29.17;61.18
41686;BME280;27370;42.764;23.432;2022-07-03T09:14:13;95914.63;;;29.33;62.25
41686;BME280;27370;42.764;23.432;2022-07-03T09:16:38;95906.03;;;29.07;64.54
41686;BME280;27370;42.764;23.432;2022-07-03T09:19:04;95902.09;;;29.45;62.35
41686;BME280;27370;42.764;23.432;2022-07-03T09:24:10;95901.59;;;29.84;52.14
41686;BME280;27370;42.764;23.432;2022-07-03T09:26:36;95902.06;;;29.70;56.79
41686;BME280;27370;42.764;23.432;2022-07-03T09:29:14;95901.31;;;29.69;55.32
41686;BME280;27370;42.764;23.432;2022-07-03T09:31:39;95900.91;;;29.78;55.97
41686;BME280;27370;42.764;23.432;2022-07-03T09:34:06;95902.44;;;29.79;50.55
41686;BME280;27370;42.764;23.432;2022-07-03T09:36:38;95899.28;;;30.07;54.36
41686;BME280;27370;42.764;23.432;2022-07-03T09:39:14;95900.72;;;29.95;51.39
41686;BME280;27370;42.764;23.432;2022-07-03T09:41:56;95901.03;;;30.10;49.93
41686;BME280;27370;42.764;23.432;2022-07-03T09:52:39;95897.00;;;29.44;44.77
41686;BME280;27370;42.764;23.432;2022-07-03T09:57:36;95893.94;;;29.23;46.97
41686;BME280;27370;42.764;23.432;2022-07-03T10:02:33;95898.00;;;29.22;50.77
41686;BME280;27370;42.764;23.432;2022-07-03T10:05:11;95896.25;;;29.19;48.69
41686;BME280;27370;42.764;23.432;2022-07-03T10:08:10;95886.41;;;29.37;50.42
41686;BME280;27370;42.764;23.432;2022-07-03T10:10:38;95886.38;;;29.18;48.93
41686;BME280;27370;42.764;23.432;2022-07-03T10:13:05;95879.50;;;29.19;51.35
41686;BME280;27370;42.764;23.432;2022-07-03T10:15:32;95883.94;;;29.33;50.58
41686;BME280;27370;42.764;23.432;2022-07-03T10:17:59;95884.16;;;29.35;50.41
41686;BME280;27370;42.764;23.432;2022-07-03T10:20:34;95873.13;;;29.48;51.35
41686;BME280;27370;42.764;23.432;2022-07-03T10:23:00;95879.25;;;29.41;48.27
41686;BME280;27370;42.764;23.432;2022-07-03T10:25:26;95875.97;;;29.18;49.39
41686;BME280;27370;42.764;23.432;2022-07-03T10:27:52;95877.38;;;29.31;50.83
41686;BME280;27370;42.764;23.432;2022-07-03T10:30:21;95867.94;;;29.58;49.60
41686;BME280;27370;42.764;23.432;2022-07-03T10:32:51;95869.91;;;29.63;49.32
41686;BME280;27370;42.764;23.432;2022-07-03T10:35:32;95851.19;;;29.58;47.56
41686;BME280;27370;42.764;23.432;2022-07-03T10:40:57;95868.25;;;29.73;52.51
41686;BME280;27370;42.764;23.432;2022-07-03T10:43:48;95848.72;;;29.73;50.31
41686;BME280;27370;42.764;23.432;2022-07-03T10:46:34;95849.38;;;29.79;47.80
41686;BME280;27370;42.764;23.432;2022-07-03T10:49:10;95848.28;;;29.69;46.89
41686;BME280;27370;42.764;23.432;2022-07-03T11:02:36;95837.06;;;30.26;43.17
41686;BME280;27370;42.764;23.432;2022-07-03T11:25:52;95814.81;;;30.20;44.86
41686;BME280;27370;42.764;23.432;2022-07-03T11:34:00;95807.34;;;30.41;42.69
41686;BME280;27370;42.764;23.432;2022-07-03T11:36:27;95803.22;;;30.61;43.37
41686;BME280;27370;42.764;23.432;2022-07-03T11:39:03;95796.78;;;30.93;43.83
41686;BME280;27370;42.764;23.432;2022-07-03T11:41:42;95799.06;;;31.07;42.98
41686;BME280;27370;42.764;23.432;2022-07-03T11:44:09;95793.53;;;31.42;39.77
41686;BME280;27370;42.764;23.432;2022-07-03T11:46:38;95790.66;;;31.47;41.47
41686;BME280;27370;42.764;23.432;2022-07-03T11:51:33;95786.59;;;32.03;41.52
41686;BME280;27370;42.764;23.432;2022-07-03T11:53:59;95771.44;;;31.98;42.69
41686;BME280;27370;42.764;23.432;2022-07-03T11:56:25;95769.94;;;32.18;43.31
41686;BME280;27370;42.764;23.432;2022-07-03T11:58:53;95774.84;;;32.25;41.92
41686;BME280;27370;42.764;23.432;2022-07-03T12:03:48;95777.25;;;32.01;41.06
41686;BME280;27370;42.764;23.432;2022-07-03T12:06:16;95774.84;;;32.05;40.01
41686;BME280;27370;42.764;23.432;2022-07-03T12:08:42;95756.13;;;32.20;38.46
41686;BME280;27370;42.764;23.432;2022-07-03T12:11:13;95765.59;;;32.59;40.20
41686;BME280;27370;42.764;23.432;2022-07-03T12:13:39;95766.91;;;32.58;38.70
41686;BME280;27370;42.764;23.432;2022-07-03T12:16:12;95752.13;;;32.57;38.02
41686;BME280;27370;42.764;23.432;2022-07-03T12:18:49;95757.25;;;32.67;40.45
41686;BME280;27370;42.764;23.432;2022-07-03T12:21:20;95757.91;;;32.52;39.07
41686;BME280;27370;42.764;23.432;2022-07-03T12:23:49;95744.16;;;32.62;39.75
41686;BME280;27370;42.764;23.432;2022-07-03T12:26:32;95754.25;;;32.65;38.60
41686;BME280;27370;42.764;23.432;2022-07-03T12:29:01;95743.59;;;32.63;38.35
41686;BME280;27370;42.764;23.432;2022-07-03T12:31:28;95745.13;;;32.93;38.31
41686;BME280;27370;42.764;23.432;2022-07-03T12:33:57;95742.69;;;32.97;38.30
41686;BME280;27370;42.764;23.432;2022-07-03T12:36:24;95745.81;;;33.22;38.67
41686;BME280;27370;42.764;23.432;2022-07-03T12:38:53;95746.84;;;32.46;37.16
41686;BME280;27370;42.764;23.432;2022-07-03T12:41:20;95736.88;;;32.17;40.29
41686;BME280;27370;42.764;23.432;2022-07-03T12:43:47;95732.81;;;32.25;39.36
41686;BME280;27370;42.764;23.432;2022-07-03T12:46:20;95744.47;;;32.58;38.49
41686;BME280;27370;42.764;23.432;2022-07-03T12:48:48;95738.91;;;32.86;40.09
41686;BME280;27370;42.764;23.432;2022-07-03T12:51:14;95745.50;;;32.97;42.18
41686;BME280;27370;42.764;23.432;2022-07-03T12:53:40;95749.19;;;32.84;45.25
41686;BME280;27370;42.764;23.432;2022-07-03T12:56:08;95749.41;;;32.37;44.48
41686;BME280;27370;42.764;23.432;2022-07-03T12:58:35;95743.06;;;32.02;44.94
41686;BME280;27370;42.764;23.432;2022-07-03T13:03:54;95751.59;;;31.28;45.94
41686;BME280;27370;42.764;23.432;2022-07-03T13:06:21;95749.47;;;30.82;48.10
41686;BME280;27370;42.764;23.432;2022-07-03T13:08:55;95754.41;;;31.02;48.23
41686;BME280;27370;42.764;23.432;2022-07-03T13:11:30;95749.13;;;30.72;48.52
41686;BME280;27370;42.764;23.432;2022-07-03T13:14:15;95756.25;;;30.86;47.86
41686;BME280;27370;42.764;23.432;2022-07-03T13:16:49;95756.25;;;31.26;47.01
41686;BME280;27370;42.764;23.432;2022-07-03T13:19:19;95746.00;;;31.28;47.71
41686;BME280;27370;42.764;23.432;2022-07-03T13:21:46;95746.50;;;31.40;44.98
41686;BME280;27370;42.764;23.432;2022-07-03T13:24:14;95751.56;;;31.42;46.96
41686;BME280;27370;42.764;23.432;2022-07-03T13:26:40;95751.19;;;31.58;47.37
41686;BME280;27370;42.764;23.432;2022-07-03T13:29:06;95752.22;;;31.48;47.16
41686;BME280;27370;42.764;23.432;2022-07-03T13:31:32;95735.50;;;31.55;47.97
41686;BME280;27370;42.764;23.432;2022-07-03T13:33:58;95743.81;;;31.68;45.78
41686;BME280;27370;42.764;23.432;2022-07-03T13:36:25;95742.28;;;31.94;47.02
41686;BME280;27370;42.764;23.432;2022-07-03T13:38:51;95746.63;;;31.82;42.99
41686;BME280;27370;42.764;23.432;2022-07-03T13:41:17;95741.56;;;31.67;43.93
41686;BME280;27370;42.764;23.432;2022-07-03T13:43:45;95741.28;;;31.57;44.84
41686;BME280;27370;42.764;23.432;2022-07-03T13:46:10;95737.16;;;31.37;46.41
41686;BME280;27370;42.764;23.432;2022-07-03T13:48:36;95728.63;;;31.43;44.32
41686;BME280;27370;42.764;23.432;2022-07-03T13:51:02;95725.13;;;31.63;44.46
41686;BME280;27370;42.764;23.432;2022-07-03T13:53:27;95721.66;;;31.36;45.84
41686;BME280;27370;42.764;23.432;2022-07-03T13:55:56;95727.94;;;31.03;47.22
41686;BME280;27370;42.764;23.432;2022-07-03T13:58:24;95722.16;;;30.61;47.98
41686;BME280;27370;42.764;23.432;2022-07-03T14:00:49;95717.69;;;30.53;47.48
41686;BME280;27370;42.764;23.432;2022-07-03T14:03:15;95719.38;;;30.61;47.51
41686;BME280;27370;42.764;23.432;2022-07-03T14:05:40;95716.84;;;30.44;47.18
41686;BME280;27370;42.764;23.432;2022-07-03T14:08:06;95716.06;;;30.17;47.59
41686;BME280;27370;42.764;23.432;2022-07-03T14:10:31;95716.31;;;30.01;48.70
41686;BME280;27370;42.764;23.432;2022-07-03T14:12:57;95719.53;;;29.92;49.30
41686;BME280;27370;42.764;23.432;2022-07-03T14:15:22;95715.06;;;29.83;49.88
41686;BME280;27370;42.764;23.432;2022-07-03T14:17:48;95713.59;;;29.63;49.58